Weather observations for the past three days for
Cape Lisburne, Cape Lisburne LRRS Airport
| Date | Time (akdt) | Wind (kph) | Vis. (km) | Weather | Sky Cond. | Temperature (ºC) | Relative Humidity | Wind Chill (°C) | Heat Index (°C) | Pressure | Precipitation (cm) | ||||||
|---|---|---|---|---|---|---|---|---|---|---|---|---|---|---|---|---|---|
| Air | Dwpt | 6 hour | altimeter (cm) | sea level (mb) | 1 hr | 3 hr | 6 hr | ||||||||||
| Max. | Min. | ||||||||||||||||
| 09 | 12:55 | E 41 | 16.09 | Partly Cloudy and Breezy | SCT012 | -4.4 | -6.5 | 85% | -13 | 76.02 | 1013.6 | ||||||
| 09 | 11:55 | E 37 | 16.09 | Light Showers Snow and Breezy | BKN016 | -4 | -6 | 86% | -12 | 76.07 | 1014.2 | ||||||
| 09 | 10:55 | E 41 G 48 | 12.87 | Light Showers Snow and Breezy | SCT019 | -4 | -6 | 86% | -12 | 76.07 | 1014.2 | ||||||
| 09 | 09:55 | E 35 | 16.09 | Mostly Cloudy and Breezy | BKN020 | -4.1 | -6.2 | -4 | -4.8 | 86% | -12 | 76.1 | 1014.5 | ||||
| 09 | 08:55 | E 33 | 16.09 | Mostly Cloudy and Breezy | BKN019 | -5 | -7 | 86% | -13 | 76.12 | 1014.8 | ||||||
| 09 | 07:55 | E 39 | 16.09 | Mostly Cloudy and Breezy | BKN017 | -5 | -7 | 86% | -13 | 76.12 | 1014.9 | ||||||
| 09 | 06:55 | NE 33 G 46 | 16.09 | Overcast and Breezy | OVC013 | -4.3 | -5.7 | 90% | -12 | 76.15 | 1015.3 | ||||||
| 09 | 05:55 | E 31 | 16.09 | Overcast | OVC012 | -4 | -6 | 86% | -11 | 76.17 | 1015.6 | ||||||
| 09 | 04:55 | E 31 G 46 | 16.09 | Overcast | OVC012 | -4 | -6 | 86% | -11 | 76.2 | 1016.0 | ||||||
| 09 | 03:55 | E 33 | 16.09 | Overcast and Breezy | OVC010 | -4.1 | -5.9 | -3.2 | -6.2 | 87% | -12 | 76.23 | 1016.3 | ||||
| 09 | 02:55 | E 31 | 16.09 | Mostly Cloudy | BKN014 | -4 | -6 | 86% | -11 | 76.25 | 1016.6 | ||||||
| 09 | 01:55 | E 19 | 16.09 | Partly Cloudy | SCT015 | -6 | -7 | 93% | -12 | 76.3 | 1017.4 | ||||||
| 09 | 00:55 | SE 24 | 16.09 | A Few Clouds | FEW016 | -5 | -6.9 | 87% | -12 | 76.33 | 1017.5 | ||||||
| 08 | 23:55 | E 20 | 16.09 | Overcast | OVC013 | -4 | -6 | 86% | -10 | 76.33 | 1017.6 | ||||||
| 08 | 22:55 | E 28 | 16.09 | Overcast | OVC010 | -4 | -5 | 93% | -11 | 76.35 | 1017.9 | ||||||
| 08 | 21:55 | E 26 | 16.09 | Overcast | OVC011 | -3.3 | -4.5 | -2.6 | -3.5 | 92% | -10 | 76.35 | 1017.8 | ||||
| 08 | 20:55 | E 28 | 16.09 | Overcast | OVC009 | -3 | -4 | 93% | -10 | 76.35 | 1018.0 | ||||||
| 08 | 19:55 | E 28 | 16.09 | Overcast | OVC009 | -3 | -4 | 93% | -10 | 76.38 | 1018.2 | ||||||
| 08 | 18:55 | E 30 | 16.09 | Overcast | OVC009 | -2.9 | -3.9 | 93% | -10 | 76.4 | 1018.4 | ||||||
| 08 | 17:55 | E 26 | 16.09 | Overcast | OVC009 | -3 | -4 | 93% | -9 | 76.4 | 1018.7 | ||||||
| 08 | 16:55 | E 28 | 16.09 | Overcast | OVC008 | -3 | -4 | 93% | -10 | 76.43 | 1018.9 | ||||||
| 08 | 15:55 | E 22 | 16.09 | Overcast | OVC007 | -3.4 | -4.6 | -2.2 | -3.7 | 92% | -9 | 76.45 | 1019.3 | ||||
| 08 | 14:55 | NE 22 | 16.09 | Overcast | OVC006 | -4 | -4 | 100% | -10 | 76.45 | 1019.4 | ||||||
| 08 | 13:55 | NE 20 | 16.09 | Overcast | OVC012 | -2 | -4 | 86% | -7 | 76.48 | 1019.6 | ||||||
| 08 | 12:55 | E 17 | 16.09 | Overcast | OVC011 | -2.4 | -4.1 | 88% | -7 | 76.5 | 1019.9 | ||||||
| 08 | 11:55 | E 19 | 16.09 | Overcast | OVC006 | -3 | -4 | 93% | -8 | 76.53 | 1020.1 | ||||||
| 08 | 10:55 | E 17 | 16.09 | Overcast | OVC009 | -2 | -3 | 93% | -7 | 76.53 | 1020.2 | ||||||
| 08 | 09:55 | E 11 | 16.09 | Overcast | OVC011 | -2.4 | -3.3 | -0.8 | -2.4 | 94% | -6 | 76.56 | 1020.6 | ||||
| 08 | 08:55 | NE 11 | 16.09 | Overcast | OVC009 | -2 | -3 | 93% | -6 | 76.56 | 1020.7 | ||||||
| 08 | 07:57 | E 4 | 16.09 | Overcast | OVC009 | -2 | -3 | 93% | 76.58 | 1020.9 | |||||||
| 08 | 06:55 | E 7 | 16.09 | Overcast | OVC012 | -2.4 | -2.9 | 96% | -5 | 76.61 | 1021.1 | ||||||
| 08 | 05:55 | E 9 | 16.09 | Overcast | OVC011 | -2 | -2 | 100% | -5 | 76.61 | 1021.2 | ||||||
| 08 | 04:55 | NE 13 | 16.09 | Overcast | OVC014 | -1 | -3 | 86% | -5 | 76.61 | 1021.3 | ||||||
| 08 | 03:55 | Calm | 16.09 | Overcast | OVC012 | -1.4 | -2 | -1.2 | -1.6 | 96% | 76.63 | 1021.6 | |||||
| 08 | 02:55 | Calm | 16.09 | Overcast | OVC014 | -1 | -2 | 93% | 76.66 | 1021.8 | |||||||
| 08 | 01:55 | Calm | 16.09 | Overcast | BKN006 OVC019 | -1 | -2 | 93% | 76.66 | 1022.1 | |||||||
| 08 | 00:55 | Calm | 16.09 | Overcast | OVC009 | -1.5 | -2.2 | 95% | 76.68 | 1022.3 | |||||||
| 07 | 23:55 | Calm | 16.09 | Overcast | OVC010 | -1 | -2 | 93% | 76.68 | 1022.5 | |||||||
| 07 | 22:55 | NE 7 | 16.09 | Overcast | OVC008 | -1 | -2 | 93% | -3 | 76.71 | 1022.7 | ||||||
| 07 | 21:55 | NE 13 | 16.09 | Overcast | OVC008 | -1.3 | -2.2 | -1.4 | -3 | 94% | -5 | 76.71 | 1022.6 | ||||
| 07 | 20:55 | Calm | 16.09 | Overcast | OVC008 | -1 | -2 | 93% | 76.71 | 1022.6 | |||||||
| 07 | 19:55 | E 7 | 16.09 | Overcast | OVC008 | -2 | -3 | 93% | -4 | 76.73 | 1023.0 | ||||||
| 07 | 18:55 | E 7 | 16.09 | Overcast | OVC007 | -1.8 | -2.5 | 95% | -4 | 76.73 | 1023.1 | ||||||
| 07 | 17:55 | E 9 | 16.09 | Overcast | OVC008 | -2 | -3 | 93% | -5 | 76.76 | 1023.3 | ||||||
| 07 | 16:55 | E 7 | 16.09 | Overcast | BKN009 OVC035 | -2 | -3 | 93% | -4 | 76.76 | 1023.3 | ||||||
| 07 | 15:55 | E 9 | 16.09 | Overcast | SCT008 OVC036 | -2.8 | -3.5 | -2.6 | -5.1 | 95% | -6 | 76.78 | 1023.5 | ||||
| 07 | 14:55 | E 11 | 16.09 | Overcast | SCT008 OVC036 | -3 | -4 | 93% | -7 | 76.78 | 1023.6 | ||||||
| 07 | 13:55 | E 4 | 16.09 | Overcast | OVC010 | -4 | -5 | 93% | 76.78 | 1023.9 | |||||||
| 07 | 12:55 | Calm | 16.09 | Overcast | OVC011 | -4.3 | -5.4 | 92% | 76.78 | 1023.7 | |||||||
| 07 | 11:55 | Calm | 16.09 | Overcast | BKN009 OVC035 | -5 | -6 | 93% | 76.78 | 1023.7 | |||||||
| 07 | 10:55 | Calm | 16.09 | Overcast | OVC008 | -5 | -6 | 93% | 76.78 | 1023.7 | |||||||
| 07 | 09:55 | N 2 | 16.09 | Overcast | OVC009 | -5.1 | -6.1 | -4.9 | -5.6 | 93% | 76.78 | 1023.8 | |||||
| 07 | 08:55 | Calm | 16.09 | Overcast | BKN010 OVC043 | -5 | -6 | 93% | 76.78 | 1023.7 | |||||||
| 07 | 07:55 | Calm | 16.09 | Overcast | OVC007 | -5 | -6 | 93% | 76.78 | 1023.5 | |||||||
| 07 | 06:55 | N 6 | 16.09 | Overcast | OVC006 | -5.3 | -5.8 | 96% | 76.78 | 1023.5 | |||||||
| 07 | 05:55 | Calm | 16.09 | Overcast | OVC006 | -5 | -6 | 93% | 76.76 | 1023.3 | |||||||
| 07 | 04:55 | N 9 | 16.09 | Overcast | OVC006 | -5 | -6 | 93% | -9 | 76.76 | 1023.4 | ||||||
| 07 | 03:55 | Vrbl 11 | 16.09 | Overcast | OVC006 | -5.4 | -6.1 | -3.7 | -5.4 | 95% | -10 | 76.73 | 1023.1 | ||||
| 07 | 02:55 | N 13 | 16.09 | Overcast | OVC007 | -5 | -6 | 93% | -10 | 76.73 | 1023.0 | ||||||
| 07 | 01:55 | Vrbl 7 | 16.09 | Overcast | OVC006 | -5 | -6 | 93% | -8 | 76.71 | 1022.7 | ||||||
| 07 | 00:55 | N 19 | 16.09 | Overcast | OVC004 | -4.9 | -5.3 | 97% | -11 | 76.68 | 1022.4 | ||||||
| 06 | 23:55 | N 13 | 16.09 | Overcast | OVC005 | -4 | -5 | 93% | -8 | 76.66 | 1022.1 | ||||||
| 06 | 22:55 | N 20 | 16.09 | Overcast | OVC006 | -4 | -5 | 93% | -10 | 76.66 | 1022.0 | ||||||
| 06 | 21:55 | N 9 | 16.09 | Overcast | OVC006 | -3.8 | -4.3 | -3.2 | -4.6 | 96% | -7 | 76.63 | 1021.6 | ||||
| 06 | 20:55 | NW 20 | 16.09 | Overcast | OVC006 | -3 | -4 | 93% | -9 | 76.61 | 1021.4 | ||||||
| 06 | 19:55 | NW 13 | 16.09 | Overcast | OVC006 | -3 | -4 | 93% | -7 | 76.61 | 1021.3 | ||||||
| 06 | 18:55 | NW 11 | 16.09 | Overcast | OVC006 | -3.5 | -4.4 | 94% | -7 | 76.61 | 1021.1 | ||||||
| 06 | 17:55 | NW 15 | 16.09 | Overcast | OVC006 | -4 | -4 | 100% | -9 | 76.56 | 1020.6 | ||||||
| 06 | 16:55 | N 13 | 16.09 | Overcast | OVC006 | -4 | -5 | 93% | -8 | 76.53 | 1020.3 | ||||||
| 06 | 15:55 | NW 15 | 16.09 | Overcast | OVC006 | -4 | -4.7 | -4.4 | -6.2 | 95% | -9 | 76.5 | 1020.0 | ||||
| 06 | 14:55 | NW 19 | 16.09 | Overcast | OVC008 | -4 | -5 | 93% | -10 | 76.5 | 1019.8 | ||||||
| 06 | 13:55 | NW 11 | 16.09 | Overcast | OVC012 | -5 | -6 | 93% | -9 | 76.48 | 1019.5 | ||||||
| Date | Time (akdt) | Wind (kph) | Vis. (km) | Weather | Sky Cond. | Air | Dwpt | Max. | Min. | Relative Humidity | Wind Chill (°C) | Heat Index (°C) | altimeter (cm) | sea level (mb) | 1 hr | 3 hr | 6 hr |
| 6 hour | |||||||||||||||||
| Temperature (ºC) | Pressure | Precipitation (cm) | |||||||||||||||